Time;durP1;ratioP1;P1;durP2;ratioP2;P2;SDS_P1;SDS_P2;PMS_P1;PMS_P2;Temp;Humidity;BMP_temperature;BMP_pressure;BME280_temperature;BME280_humidity;BME280_pressure;Samples;Min_cycle;Max_cycle;Signal;HPM_P1;HPM_P2
2023/02/05 00:01:53;;;;;;;4.13;3.73;;;1.00;99.90;;;;;;5055481;28;20480;-74
2023/02/05 00:04:24;;;;;;;4.07;3.77;;;0.90;99.90;;;;;;5060530;28;20512;-74
2023/02/05 00:06:55;;;;;;;5.73;3.67;;;0.90;99.90;;;;;;5061581;28;20485;-74
2023/02/05 00:09:29;;;;;;;6.00;4.17;;;0.90;99.90;;;;;;5065846;28;20496;-72
2023/02/05 00:11:57;;;;;;;4.60;3.90;;;0.80;99.90;;;;;;5064226;28;20481;-74
2023/02/05 00:14:27;;;;;;;3.73;3.43;;;0.80;99.90;;;;;;5056999;28;20473;-73
2023/02/05 00:16:55;;;;;;;4.23;3.83;;;0.80;99.90;;;;;;5063900;28;20491;-74
2023/02/05 00:19:30;;;;;;;4.47;3.60;;;0.80;99.90;;;;;;5061616;28;20462;-74
2023/02/05 00:22:08;;;;;;;4.33;3.93;;;0.80;99.90;;;;;;5062221;28;20496;-74
2023/02/05 00:24:39;;;;;;;4.10;3.70;;;0.80;99.90;;;;;;5064791;28;20468;-74
2023/02/05 00:27:17;;;;;;;5.60;3.63;;;0.80;99.90;;;;;;5065193;28;20493;-74
2023/02/05 00:29:49;;;;;;;4.20;3.67;;;0.80;99.90;;;;;;5066587;28;20493;-74
2023/02/05 00:32:21;;;;;;;5.30;4.10;;;0.70;99.90;;;;;;5068526;28;20493;-75
2023/02/05 00:34:53;;;;;;;4.07;3.77;;;0.80;99.90;;;;;;5068467;28;20548;-75
2023/02/05 00:37:26;;;;;;;4.97;3.70;;;0.80;99.90;;;;;;5068042;28;20470;-75
2023/02/05 00:39:58;;;;;;;4.00;3.53;;;0.70;99.90;;;;;;5061784;28;20884;-75
2023/02/05 00:42:28;;;;;;;3.90;3.33;;;0.70;99.90;;;;;;5067929;28;20504;-75
2023/02/05 00:44:56;;;;;;;3.87;3.47;;;0.70;99.90;;;;;;5067641;28;20461;-74
2023/02/05 00:47:24;;;;;;;4.03;3.63;;;0.70;99.90;;;;;;5069208;28;20477;-74
2023/02/05 00:49:52;;;;;;;3.40;3.10;;;0.70;99.90;;;;;;5067896;28;20489;-73
2023/02/05 00:52:20;;;;;;;3.47;2.93;;;0.70;99.90;;;;;;5067560;28;20485;-74
2023/02/05 00:54:47;;;;;;;3.63;3.33;;;0.70;99.90;;;;;;5069336;28;20503;-74
2023/02/05 00:57:23;;;;;;;5.40;2.77;;;0.70;99.90;;;;;;5064976;28;20485;-74
2023/02/05 00:59:52;;;;;;;3.10;2.77;;;0.60;99.90;;;;;;5067665;28;20473;-74
2023/02/05 01:02:26;;;;;;;3.00;2.70;;;0.70;99.90;;;;;;5060171;28;20495;-73
2023/02/05 01:04:55;;;;;;;3.00;2.80;;;0.60;99.90;;;;;;5062230;28;20969;-73
2023/02/05 01:07:29;;;;;;;4.60;2.97;;;0.60;99.90;;;;;;5065120;28;20477;-74
2023/02/05 01:10:05;;;;;;;3.97;3.03;;;0.60;99.90;;;;;;5068028;28;20492;-74
2023/02/05 01:12:37;;;;;;;3.20;2.93;;;0.60;99.90;;;;;;5063198;28;20931;-74
2023/02/05 01:15:08;;;;;;;5.40;2.97;;;0.50;99.90;;;;;;5062615;28;20484;-73
2023/02/05 01:17:40;;;;;;;2.83;2.60;;;0.50;99.90;;;;;;5069786;28;20464;-74
2023/02/05 01:20:12;;;;;;;2.90;2.60;;;0.50;99.90;;;;;;5066995;28;20468;-74
2023/02/05 01:22:41;;;;;;;3.00;2.70;;;0.50;99.90;;;;;;5069971;28;20485;-74
2023/02/05 01:25:18;;;;;;;3.30;3.00;;;0.50;99.90;;;;;;5070533;28;20485;-74
2023/02/05 01:27:53;;;;;;;3.33;3.03;;;0.40;99.90;;;;;;5058962;28;20483;-75
2023/02/05 01:30:25;;;;;;;3.20;3.00;;;0.40;99.90;;;;;;5066571;28;20551;-74
2023/02/05 01:32:58;;;;;;;3.20;2.83;;;0.40;99.90;;;;;;5065791;28;20497;-74
2023/02/05 01:35:25;;;;;;;3.83;2.90;;;0.40;99.90;;;;;;5072648;28;20484;-74
2023/02/05 01:37:53;;;;;;;2.43;2.33;;;0.40;99.90;;;;;;5083012;28;20486;-73
2023/02/05 01:40:23;;;;;;;2.80;2.60;;;0.30;99.90;;;;;;5082180;28;20497;-75
2023/02/05 01:42:55;;;;;;;4.00;2.93;;;0.30;99.90;;;;;;5078299;28;20481;-73
2023/02/05 01:45:54;;;;;;;3.20;2.90;;;0.30;99.90;;;;;;5079032;28;20480;-75
2023/02/05 01:48:26;;;;;;;3.97;3.13;;;0.30;99.90;;;;;;5085684;28;20465;-75
2023/02/05 01:50:59;;;;;;;3.30;2.70;;;0.20;99.90;;;;;;5083962;28;20511;-74
2023/02/05 01:53:37;;;;;;;3.20;2.70;;;0.30;99.90;;;;;;5081667;28;20481;-74
2023/02/05 01:56:17;;;;;;;2.77;2.57;;;0.20;99.90;;;;;;5071931;27;20484;-75
2023/02/05 01:58:52;;;;;;;4.20;3.03;;;0.20;99.90;;;;;;5072986;28;20478;-74
2023/02/05 02:01:28;;;;;;;3.77;3.10;;;0.20;99.90;;;;;;5072660;28;20470;-74
2023/02/05 02:03:58;;;;;;;3.57;3.10;;;0.30;99.90;;;;;;5070992;28;21218;-74
2023/02/05 02:06:29;;;;;;;4.50;3.17;;;0.30;99.90;;;;;;5072831;28;20484;-74
2023/02/05 02:09:00;;;;;;;3.53;2.83;;;0.30;99.90;;;;;;5067853;28;20466;-74
2023/02/05 02:11:33;;;;;;;2.97;2.67;;;0.30;99.90;;;;;;5069650;28;20504;-74
2023/02/05 02:14:06;;;;;;;3.40;2.97;;;0.30;99.90;;;;;;5070247;28;20995;-74
2023/02/05 02:16:37;;;;;;;2.93;2.60;;;0.30;99.90;;;;;;5069144;28;20485;-75
2023/02/05 02:19:18;;;;;;;3.10;2.80;;;0.30;99.90;;;;;;5071950;28;20968;-75
2023/02/05 02:22:35;;;;;;;3.37;2.87;;;0.30;99.90;;;;;;5070912;28;20469;-74
2023/02/05 02:25:21;;;;;;;2.83;2.60;;;0.30;99.90;;;;;;5068960;27;20472;-75
2023/02/05 02:27:55;;;;;;;3.30;3.00;;;0.30;99.90;;;;;;5068807;28;20482;-74
2023/02/05 02:30:26;;;;;;;2.87;2.60;;;0.40;99.90;;;;;;5063296;28;20473;-75
2023/02/05 02:33:06;;;;;;;3.20;2.90;;;0.40;99.90;;;;;;5067329;28;20489;-75
2023/02/05 02:35:42;;;;;;;3.67;2.87;;;0.40;99.90;;;;;;5066601;28;20489;-75
2023/02/05 02:38:24;;;;;;;3.07;2.77;;;0.40;99.90;;;;;;5067084;28;20461;-74
2023/02/05 02:40:55;;;;;;;3.00;2.80;;;0.40;99.90;;;;;;5069729;28;20476;-75
2023/02/05 02:43:31;;;;;;;3.20;2.90;;;0.40;99.90;;;;;;5068705;28;20497;-75
2023/02/05 02:46:06;;;;;;;4.67;3.50;;;0.40;99.90;;;;;;5069230;28;20571;-75
2023/02/05 02:48:38;;;;;;;3.43;3.13;;;0.40;99.90;;;;;;5068184;28;20476;-75
2023/02/05 02:51:08;;;;;;;3.50;3.20;;;0.40;99.90;;;;;;5068273;28;20494;-75
2023/02/05 02:53:42;;;;;;;3.50;3.20;;;0.40;99.90;;;;;;5066924;28;20492;-73
2023/02/05 02:56:12;;;;;;;3.23;2.93;;;0.40;99.90;;;;;;5065809;28;20485;-74
2023/02/05 02:58:50;;;;;;;3.30;3.00;;;0.40;99.90;;;;;;5067318;28;20464;-75
2023/02/05 03:01:24;;;;;;;3.13;2.93;;;0.40;99.90;;;;;;5062880;28;20462;-75
2023/02/05 03:04:02;;;;;;;3.80;3.00;;;0.40;99.90;;;;;;5066637;28;20487;-74
2023/02/05 03:06:35;;;;;;;2.80;2.57;;;0.40;99.90;;;;;;5063428;28;20488;-75
2023/02/05 03:09:10;;;;;;;3.10;2.80;;;0.30;99.90;;;;;;5062726;28;20473;-75
2023/02/05 03:11:42;;;;;;;3.77;3.40;;;0.30;99.90;;;;;;5060975;28;20526;-74
2023/02/05 03:14:18;;;;;;;3.23;2.90;;;0.30;99.90;;;;;;5065230;28;21817;-74
2023/02/05 03:16:46;;;;;;;3.40;3.10;;;0.30;99.90;;;;;;5064447;28;20484;-75
2023/02/05 03:19:14;;;;;;;4.20;3.43;;;0.30;99.90;;;;;;5060980;28;20477;-75
2023/02/05 03:21:49;;;;;;;2.77;2.57;;;0.30;99.90;;;;;;5067585;28;20473;-75
2023/02/05 03:24:25;;;;;;;3.40;3.10;;;0.40;99.90;;;;;;5067301;28;20980;-75
2023/02/05 03:26:58;;;;;;;3.17;2.80;;;0.30;99.90;;;;;;5067212;28;20485;-75
2023/02/05 03:29:32;;;;;;;7.43;3.40;;;0.40;99.90;;;;;;5068315;28;20995;-75
2023/02/05 03:32:12;;;;;;;3.50;3.20;;;0.30;99.90;;;;;;5066712;28;20505;-75
2023/02/05 03:34:53;;;;;;;3.37;3.07;;;0.30;99.90;;;;;;5069122;28;20535;-74
2023/02/05 03:37:32;;;;;;;3.40;3.10;;;0.30;99.90;;;;;;5066875;28;20484;-74
2023/02/05 03:40:15;;;;;;;4.47;3.30;;;0.30;99.90;;;;;;5068741;28;20481;-74
2023/02/05 03:42:51;;;;;;;2.77;2.53;;;0.30;99.90;;;;;;5066463;28;20508;-74
2023/02/05 03:45:47;;;;;;;3.00;2.73;;;0.30;99.90;;;;;;5067787;28;21057;-73
2023/02/05 03:48:44;;;;;;;3.47;3.17;;;0.30;99.90;;;;;;5069345;28;20568;-74
2023/02/05 03:51:27;;;;;;;3.43;2.90;;;0.30;99.90;;;;;;5052873;28;20527;-74
2023/02/05 03:54:14;;;;;;;3.00;2.70;;;0.30;99.90;;;;;;5067197;28;20489;-75
2023/02/05 03:56:51;;;;;;;3.47;3.10;;;0.30;99.90;;;;;;5065885;28;20481;-73
2023/02/05 03:59:23;;;;;;;4.97;3.53;;;0.30;99.90;;;;;;5069539;28;20470;-75
2023/02/05 04:01:53;;;;;;;2.90;2.70;;;0.20;99.90;;;;;;5070189;28;20458;-75
2023/02/05 04:04:21;;;;;;;3.90;3.20;;;0.20;99.90;;;;;;5071161;28;20469;-76
2023/02/05 04:06:54;;;;;;;3.67;3.37;;;0.20;99.90;;;;;;5069849;28;20492;-75
2023/02/05 04:09:22;;;;;;;3.63;3.00;;;0.20;99.90;;;;;;5069056;28;20515;-75
2023/02/05 04:11:54;;;;;;;3.63;3.17;;;0.20;99.90;;;;;;5069189;28;20501;-75
2023/02/05 04:14:24;;;;;;;3.40;3.10;;;0.20;99.90;;;;;;5069381;28;21020;-75
2023/02/05 04:16:57;;;;;;;3.47;3.17;;;0.20;99.90;;;;;;5067624;28;20493;-75
2023/02/05 04:19:27;;;;;;;3.10;2.80;;;0.20;99.90;;;;;;5068109;28;20477;-75
2023/02/05 04:21:55;;;;;;;3.47;3.17;;;0.20;99.90;;;;;;5069362;28;20458;-75
2023/02/05 04:24:24;;;;;;;3.03;2.83;;;0.20;99.90;;;;;;5068691;28;21211;-74
2023/02/05 04:26:52;;;;;;;3.93;3.57;;;0.20;99.90;;;;;;5064040;28;20497;-75
2023/02/05 04:29:23;;;;;;;3.43;2.73;;;0.20;99.90;;;;;;5065191;28;20853;-75
2023/02/05 04:31:54;;;;;;;3.67;3.30;;;0.30;99.90;;;;;;5066620;28;20526;-75
2023/02/05 04:34:23;;;;;;;4.70;3.50;;;0.30;99.90;;;;;;5065368;28;20509;-75
2023/02/05 04:36:54;;;;;;;2.90;2.70;;;0.30;99.90;;;;;;5066828;28;20485;-75
2023/02/05 04:39:25;;;;;;;3.50;3.20;;;0.30;99.90;;;;;;5068993;28;20595;-75
2023/02/05 04:42:00;;;;;;;3.70;3.30;;;0.20;99.90;;;;;;5063666;28;20473;-75
2023/02/05 04:44:30;;;;;;;3.17;2.97;;;0.20;99.90;;;;;;5067710;28;20480;-74
2023/02/05 04:47:02;;;;;;;3.47;3.17;;;0.20;99.90;;;;;;5070908;28;20481;-75
2023/02/05 04:49:36;;;;;;;3.53;3.23;;;0.20;99.90;;;;;;5068837;28;20995;-74
2023/02/05 04:52:08;;;;;;;3.20;2.90;;;0.20;99.90;;;;;;5066341;28;20504;-74
2023/02/05 04:54:39;;;;;;;3.20;2.90;;;0.20;99.90;;;;;;5069788;28;20453;-74
2023/02/05 04:57:10;;;;;;;3.60;3.30;;;0.20;99.90;;;;;;5064750;28;20481;-75
2023/02/05 04:59:39;;;;;;;3.90;3.50;;;0.30;99.90;;;;;;5068129;28;20477;-75
2023/02/05 05:02:19;;;;;;;3.50;3.30;;;0.30;99.90;;;;;;5067568;28;20567;-75
2023/02/05 05:04:52;;;;;;;4.67;3.40;;;0.30;99.90;;;;;;5065813;28;20594;-74
2023/02/05 05:07:20;;;;;;;4.40;3.20;;;0.30;99.90;;;;;;5064337;28;20473;-75
2023/02/05 05:09:50;;;;;;;3.57;3.27;;;0.30;99.90;;;;;;5070117;28;20458;-74
2023/02/05 05:12:19;;;;;;;4.00;3.60;;;0.30;99.90;;;;;;5071045;28;20508;-75
2023/02/05 05:14:47;;;;;;;3.30;2.93;;;0.30;99.90;;;;;;5072887;28;20476;-76
2023/02/05 05:17:16;;;;;;;3.60;3.30;;;0.30;99.90;;;;;;5069319;28;20481;-75
2023/02/05 05:19:46;;;;;;;3.60;3.27;;;0.30;99.90;;;;;;5068731;28;20473;-75
2023/02/05 05:22:29;;;;;;;3.10;2.90;;;0.30;99.90;;;;;;5072318;28;20490;-74
2023/02/05 05:25:01;;;;;;;4.90;3.13;;;0.30;99.90;;;;;;5074001;28;20469;-74
2023/02/05 05:27:36;;;;;;;4.60;3.37;;;0.30;99.90;;;;;;5066139;28;20465;-75
2023/02/05 05:30:06;;;;;;;3.53;3.23;;;0.30;99.90;;;;;;5067823;28;20468;-76
2023/02/05 05:32:37;;;;;;;4.00;3.60;;;0.30;99.90;;;;;;5069461;28;20493;-76
2023/02/05 05:35:05;;;;;;;4.43;3.30;;;0.30;99.90;;;;;;5062580;28;20485;-75
2023/02/05 05:37:42;;;;;;;3.43;3.10;;;0.30;99.90;;;;;;5069969;28;20469;-76
2023/02/05 05:45:52;;;;;;;3.47;3.17;;;0.30;99.90;;;;;;5070965;28;20532;-76
2023/02/05 05:48:24;;;;;;;4.30;3.90;;;0.30;99.90;;;;;;5071190;28;20501;-75
2023/02/05 05:50:54;;;;;;;3.90;3.60;;;0.40;99.90;;;;;;5063191;28;20468;-75
2023/02/05 05:53:26;;;;;;;4.53;3.40;;;0.40;99.90;;;;;;5070325;28;21159;-76
2023/02/05 05:55:57;;;;;;;4.17;3.77;;;0.40;99.90;;;;;;5070214;28;21439;-76
2023/02/05 05:58:27;;;;;;;4.27;3.60;;;0.40;99.90;;;;;;5072269;28;20911;-75
2023/02/05 06:01:02;;;;;;;3.63;3.33;;;0.40;99.90;;;;;;5072667;28;20465;-75
2023/02/05 06:03:36;;;;;;;4.30;3.90;;;0.40;99.90;;;;;;5072093;28;20480;-74
2023/02/05 06:08:58;;;;;;;4.50;3.60;;;0.40;99.90;;;;;;5066100;28;20482;-76
2023/02/05 06:11:27;;;;;;;4.20;3.50;;;0.40;99.90;;;;;;5070436;28;20460;-74
2023/02/05 06:13:58;;;;;;;3.73;3.40;;;0.40;99.90;;;;;;5065746;28;20592;-75
2023/02/05 06:16:30;;;;;;;3.73;3.47;;;0.40;99.90;;;;;;5067838;28;20612;-75
2023/02/05 06:19:04;;;;;;;4.33;3.97;;;0.40;99.90;;;;;;5069290;28;20888;-74
2023/02/05 06:21:34;;;;;;;3.80;3.50;;;0.40;99.90;;;;;;5066292;28;20483;-75
2023/02/05 06:24:03;;;;;;;4.17;3.77;;;0.40;99.90;;;;;;5067077;28;20486;-75
2023/02/05 06:26:38;;;;;;;5.37;4.20;;;0.40;99.90;;;;;;5066085;28;20486;-74
2023/02/05 06:29:06;;;;;;;4.93;4.00;;;0.40;99.90;;;;;;5066143;28;20477;-75
2023/02/05 06:31:42;;;;;;;4.57;3.90;;;0.40;99.90;;;;;;5064009;28;20480;-75
2023/02/05 06:34:10;;;;;;;4.60;3.80;;;0.40;99.90;;;;;;5068682;28;20517;-75
2023/02/05 06:36:37;;;;;;;4.20;3.80;;;0.40;99.90;;;;;;5072254;28;20953;-76
2023/02/05 06:39:13;;;;;;;6.37;4.27;;;0.40;99.90;;;;;;5069371;28;20481;-75
2023/02/05 06:41:44;;;;;;;4.20;3.90;;;0.40;99.90;;;;;;5068479;28;20559;-76
2023/02/05 06:44:16;;;;;;;4.33;3.83;;;0.40;99.90;;;;;;5064065;28;20460;-74
2023/02/05 06:46:47;;;;;;;4.30;3.90;;;0.40;99.90;;;;;;5064269;28;20520;-75
2023/02/05 06:49:15;;;;;;;4.77;4.13;;;0.50;99.90;;;;;;5063428;28;20504;-75
2023/02/05 06:51:45;;;;;;;4.20;3.53;;;0.50;99.90;;;;;;5064994;28;20470;-75
2023/02/05 06:54:18;;;;;;;4.00;3.60;;;0.50;99.90;;;;;;5063769;28;20493;-74
2023/02/05 06:56:49;;;;;;;5.30;4.10;;;0.50;99.90;;;;;;5065133;28;20492;-75
2023/02/05 06:59:19;;;;;;;4.20;3.80;;;0.50;99.90;;;;;;5063743;28;20514;-73
2023/02/05 07:01:51;;;;;;;4.20;3.80;;;0.50;99.90;;;;;;5066425;28;20461;-76
2023/02/05 07:04:19;;;;;;;5.03;4.23;;;0.50;99.90;;;;;;5067539;28;20519;-75
2023/02/05 07:06:47;;;;;;;4.37;3.97;;;0.50;99.90;;;;;;5070005;28;20477;-75
2023/02/05 07:09:21;;;;;;;3.73;3.43;;;0.40;99.90;;;;;;5070546;28;20519;-76
2023/02/05 07:11:49;;;;;;;4.20;3.90;;;0.40;99.90;;;;;;5069868;28;20470;-75
2023/02/05 07:14:20;;;;;;;4.93;4.30;;;0.50;99.90;;;;;;5070931;28;20485;-75
2023/02/05 07:16:50;;;;;;;3.63;3.27;;;0.50;99.90;;;;;;5068630;28;20478;-75
2023/02/05 07:19:22;;;;;;;6.67;3.90;;;0.50;99.90;;;;;;5067866;28;20598;-75
2023/02/05 07:21:52;;;;;;;5.17;4.03;;;0.50;99.90;;;;;;5068217;28;20488;-75
2023/02/05 07:24:23;;;;;;;4.70;4.23;;;0.50;99.90;;;;;;5074307;28;20465;-75
2023/02/05 07:26:52;;;;;;;4.60;4.20;;;0.50;99.90;;;;;;5068987;28;20492;-76
2023/02/05 07:29:21;;;;;;;4.83;3.90;;;0.50;99.90;;;;;;5069748;28;21004;-75
2023/02/05 07:31:49;;;;;;;5.80;4.27;;;0.50;99.90;;;;;;5067457;28;20481;-76
2023/02/05 07:34:18;;;;;;;5.60;3.77;;;0.40;99.90;;;;;;5072001;28;20488;-75
2023/02/05 07:36:54;;;;;;;5.00;4.50;;;0.50;99.90;;;;;;5079019;28;20489;-76
2023/02/05 07:39:27;;;;;;;4.40;3.83;;;0.40;99.90;;;;;;5079601;28;20555;-74
2023/02/05 07:42:03;;;;;;;4.50;4.10;;;0.50;99.90;;;;;;5077489;28;20461;-76
2023/02/05 07:44:34;;;;;;;4.30;3.90;;;0.50;99.90;;;;;;5072033;28;21895;-75
2023/02/05 07:47:04;;;;;;;4.20;3.90;;;0.50;99.90;;;;;;5064916;28;20492;-75
2023/02/05 07:49:36;;;;;;;4.73;4.23;;;0.50;99.90;;;;;;5070323;28;20468;-75
2023/02/05 07:52:04;;;;;;;4.90;4.50;;;0.50;99.90;;;;;;5065093;28;20500;-77
2023/02/05 07:54:37;;;;;;;4.50;4.10;;;0.50;99.90;;;;;;5067386;28;20489;-76
2023/02/05 07:57:05;;;;;;;4.33;3.93;;;0.50;99.90;;;;;;5067828;28;20488;-75
2023/02/05 07:59:36;;;;;;;11.63;4.80;;;0.50;99.90;;;;;;5070298;28;20466;-75
2023/02/05 08:02:05;;;;;;;4.47;4.17;;;0.50;99.90;;;;;;5074386;28;20515;-75
2023/02/05 08:04:33;;;;;;;4.63;4.10;;;0.60;99.90;;;;;;5065068;28;20474;-75
2023/02/05 08:07:01;;;;;;;4.53;4.13;;;0.60;99.90;;;;;;5064986;28;20485;-72
2023/02/05 08:09:29;;;;;;;5.60;4.57;;;0.60;99.90;;;;;;5065379;28;20478;-75
2023/02/05 08:12:00;;;;;;;5.00;4.50;;;0.60;99.90;;;;;;5058705;28;20501;-74
2023/02/05 08:14:30;;;;;;;6.43;3.97;;;0.60;99.90;;;;;;5063230;28;20494;-74
2023/02/05 08:16:59;;;;;;;4.50;4.10;;;0.60;99.90;;;;;;5059291;28;20497;-74
2023/02/05 08:19:27;;;;;;;4.57;4.17;;;0.60;99.90;;;;;;5057951;28;20465;-75
2023/02/05 08:21:55;;;;;;;4.53;4.13;;;0.70;99.90;;;;;;5051680;28;20481;-75
2023/02/05 08:24:23;;;;;;;5.83;4.73;;;0.70;99.90;;;;;;5060094;28;20469;-75
2023/02/05 08:26:51;;;;;;;5.60;5.10;;;0.70;99.90;;;;;;5056935;28;20481;-74
2023/02/05 08:29:22;;;;;;;4.53;4.13;;;0.70;99.90;;;;;;5059411;28;20469;-76
2023/02/05 08:31:50;;;;;;;5.07;4.57;;;0.80;99.90;;;;;;5050752;28;20484;-75
2023/02/05 08:34:18;;;;;;;5.77;4.57;;;0.80;99.90;;;;;;5059601;28;20745;-75
2023/02/05 08:36:49;;;;;;;5.80;4.50;;;0.80;99.90;;;;;;5050617;28;20883;-74
2023/02/05 08:39:19;;;;;;;5.67;5.17;;;0.90;99.90;;;;;;5056030;28;20478;-75
2023/02/05 08:41:48;;;;;;;5.23;4.77;;;0.90;99.90;;;;;;5051572;28;20469;-75
2023/02/05 08:44:15;;;;;;;5.23;4.20;;;0.90;99.90;;;;;;5063147;28;20476;-76
2023/02/05 08:46:45;;;;;;;4.50;4.10;;;0.90;99.90;;;;;;5058666;28;22670;-73
2023/02/05 08:49:17;;;;;;;4.70;4.30;;;1.00;99.90;;;;;;5067058;28;20501;-75
2023/02/05 08:51:45;;;;;;;6.30;4.37;;;1.00;99.90;;;;;;5064558;28;20462;-74
2023/02/05 08:54:14;;;;;;;5.30;4.37;;;1.00;99.90;;;;;;5057203;28;20499;-75
2023/02/05 08:56:43;;;;;;;4.97;4.43;;;1.00;99.90;;;;;;5066046;28;20488;-75
2023/02/05 08:59:12;;;;;;;4.87;3.97;;;1.10;99.90;;;;;;5068887;28;20858;-75
2023/02/05 09:01:41;;;;;;;5.13;4.63;;;1.10;99.90;;;;;;5068217;28;20503;-74
2023/02/05 09:04:14;;;;;;;4.90;4.43;;;1.10;99.90;;;;;;5068725;28;20461;-75
2023/02/05 09:06:42;;;;;;;5.47;4.87;;;1.10;99.90;;;;;;5064572;28;20481;-75
2023/02/05 09:09:10;;;;;;;5.47;4.97;;;1.20;99.90;;;;;;5067057;28;20481;-75
2023/02/05 09:11:38;;;;;;;5.40;4.90;;;1.20;99.90;;;;;;5057935;28;20473;-74
2023/02/05 09:14:07;;;;;;;4.80;4.40;;;1.30;99.90;;;;;;5063210;28;20864;-77
2023/02/05 09:16:35;;;;;;;5.60;5.00;;;1.30;99.90;;;;;;5064233;28;20484;-76
2023/02/05 09:19:03;;;;;;;6.70;4.47;;;1.30;99.90;;;;;;5070038;28;20472;-74
2023/02/05 09:21:32;;;;;;;6.10;4.60;;;1.30;99.90;;;;;;5072217;28;20469;-75
2023/02/05 09:24:00;;;;;;;4.97;4.50;;;1.40;99.90;;;;;;5066297;28;20485;-77
2023/02/05 09:26:28;;;;;;;7.47;4.77;;;1.40;99.90;;;;;;5067026;28;20485;-75
2023/02/05 09:28:57;;;;;;;4.67;4.27;;;1.40;99.90;;;;;;5060160;28;21093;-75
2023/02/05 09:31:25;;;;;;;4.70;4.30;;;1.50;99.90;;;;;;5048021;28;20560;-77
2023/02/05 09:33:54;;;;;;;6.03;4.80;;;1.50;99.90;;;;;;5058304;28;20481;-76
2023/02/05 09:36:23;;;;;;;5.13;4.43;;;1.50;99.90;;;;;;5064593;28;21003;-75
2023/02/05 09:38:55;;;;;;;6.63;5.13;;;1.50;99.90;;;;;;5066108;28;20480;-74
2023/02/05 09:41:49;;;;;;;5.30;4.80;;;1.60;99.90;;;;;;5054764;28;20977;-76
2023/02/05 09:44:25;;;;;;;6.60;5.50;;;1.60;99.90;;;;;;5058014;28;20473;-74
2023/02/05 09:47:01;;;;;;;5.63;5.10;;;1.60;99.90;;;;;;5052778;28;21041;-77
2023/02/05 09:49:34;;;;;;;5.70;4.80;;;1.60;99.90;;;;;;5053632;28;20477;-74
2023/02/05 09:52:09;;;;;;;4.70;4.30;;;1.60;99.90;;;;;;5058679;28;20603;-75
2023/02/05 09:54:42;;;;;;;5.90;4.80;;;1.70;99.90;;;;;;5069114;28;20504;-75
2023/02/05 09:57:17;;;;;;;5.13;4.63;;;1.70;99.90;;;;;;5062481;28;20496;-75
2023/02/05 09:59:47;;;;;;;8.13;4.73;;;1.70;99.90;;;;;;5067064;28;20468;-74
2023/02/05 10:02:24;;;;;;;5.27;4.77;;;1.80;99.90;;;;;;5066028;28;20493;-76
2023/02/05 10:04:53;;;;;;;5.30;4.77;;;1.80;99.90;;;;;;5065506;28;20461;-75
2023/02/05 10:07:37;;;;;;;5.10;4.70;;;1.80;99.90;;;;;;5066193;28;20470;-77
2023/02/05 10:10:28;;;;;;;5.97;4.80;;;1.80;99.90;;;;;;5066274;28;20469;-75
2023/02/05 10:13:12;;;;;;;5.90;4.60;;;1.90;99.90;;;;;;5060493;28;20490;-76
2023/02/05 10:15:56;;;;;;;4.83;4.33;;;1.90;99.90;;;;;;5065810;28;20486;-76
2023/02/05 10:18:34;;;;;;;7.50;4.77;;;1.90;99.90;;;;;;5065075;28;20479;-75
2023/02/05 10:21:15;;;;;;;6.03;5.00;;;2.00;99.90;;;;;;5066452;28;20855;-75
2023/02/05 10:24:06;;;;;;;5.27;4.77;;;2.00;99.90;;;;;;5070936;28;20489;-75
2023/02/05 10:26:41;;;;;;;5.30;4.80;;;2.00;99.90;;;;;;5067694;28;20489;-75
2023/02/05 10:29:28;;;;;;;6.13;4.40;;;2.10;99.90;;;;;;5064438;28;20844;-75
2023/02/05 10:32:10;;;;;;;5.83;5.23;;;2.10;99.90;;;;;;5060157;28;20485;-74
2023/02/05 10:34:55;;;;;;;5.20;4.70;;;2.10;99.90;;;;;;5058070;28;20527;-74
2023/02/05 10:37:38;;;;;;;5.70;5.20;;;2.20;99.90;;;;;;5061256;28;20481;-77
2023/02/05 10:40:15;;;;;;;5.40;4.90;;;2.20;99.90;;;;;;5066267;28;20488;-76
2023/02/05 10:42:50;;;;;;;6.20;5.57;;;2.30;99.90;;;;;;5065667;28;21317;-73
2023/02/05 10:45:22;;;;;;;4.90;4.40;;;2.30;99.90;;;;;;5061122;28;20485;-74
2023/02/05 10:48:09;;;;;;;5.70;4.97;;;2.30;99.90;;;;;;5063576;28;21897;-77
2023/02/05 10:50:49;;;;;;;5.00;4.60;;;2.30;99.90;;;;;;5056129;28;20465;-75
2023/02/05 10:53:22;;;;;;;5.90;5.33;;;2.30;99.90;;;;;;5059906;28;20497;-75
2023/02/05 10:55:50;;;;;;;5.50;5.03;;;2.40;99.90;;;;;;5060116;28;20485;-73
2023/02/05 10:58:35;;;;;;;5.73;5.23;;;2.40;99.90;;;;;;5063893;28;20477;-74
2023/02/05 11:01:05;;;;;;;6.00;5.30;;;2.50;99.90;;;;;;5063202;28;20513;-74
2023/02/05 11:03:33;;;;;;;5.40;4.90;;;2.40;99.90;;;;;;5057560;28;21020;-75
2023/02/05 11:06:08;;;;;;;5.23;4.73;;;2.50;99.90;;;;;;5063094;28;20866;-76
2023/02/05 11:08:38;;;;;;;5.80;5.30;;;2.50;99.90;;;;;;5071800;28;20457;-76
2023/02/05 11:11:18;;;;;;;6.37;5.40;;;2.50;99.90;;;;;;5067217;28;20473;-75
2023/02/05 11:13:52;;;;;;;5.67;4.97;;;2.60;99.90;;;;;;5062137;28;20846;-76
2023/02/05 11:19:06;;;;;;;5.60;5.00;;;2.60;99.90;;;;;;5066415;28;20453;-77
2023/02/05 11:21:56;;;;;;;6.70;5.40;;;2.60;99.90;;;;;;5067389;28;20465;-76
2023/02/05 11:24:30;;;;;;;5.80;5.20;;;2.70;99.90;;;;;;5067419;28;20466;-77
2023/02/05 11:27:27;;;;;;;5.93;5.40;;;2.70;99.90;;;;;;5066343;28;21184;-78
2023/02/05 11:30:22;;;;;;;7.37;4.97;;;2.70;99.90;;;;;;5065335;28;20477;-76
2023/02/05 11:33:23;;;;;;;5.33;4.83;;;2.70;99.90;;;;;;5070424;28;20509;-78
2023/02/05 11:35:56;;;;;;;5.87;5.33;;;2.80;99.90;;;;;;5072218;28;20625;-75
2023/02/05 11:38:33;;;;;;;6.20;5.10;;;2.80;99.90;;;;;;5057557;28;20477;-78
2023/02/05 11:41:05;;;;;;;7.37;5.53;;;2.80;99.90;;;;;;5063762;28;20474;-77
2023/02/05 11:43:36;;;;;;;5.90;5.30;;;2.80;99.90;;;;;;5065082;28;20912;-77
2023/02/05 11:46:17;;;;;;;5.37;4.87;;;2.80;99.90;;;;;;5067201;28;20473;-77
2023/02/05 11:48:53;;;;;;;5.70;5.20;;;2.80;99.90;;;;;;5067524;28;20479;-76
2023/02/05 11:51:36;;;;;;;6.60;5.07;;;2.80;99.90;;;;;;5053382;28;20999;-77
2023/02/05 11:54:14;;;;;;;4.73;4.20;;;2.90;99.90;;;;;;5063381;28;20470;-77
2023/02/05 11:57:01;;;;;;;4.87;4.40;;;2.90;99.90;;;;;;5049558;28;20485;-77
2023/02/05 11:59:31;;;;;;;5.03;4.53;;;2.90;99.90;;;;;;5051104;28;20461;-76
2023/02/05 12:02:24;;;;;;;5.67;5.03;;;3.00;99.90;;;;;;5056642;28;20504;-77
2023/02/05 12:04:59;;;;;;;5.40;4.90;;;3.00;99.90;;;;;;5064374;28;20815;-78
2023/02/05 12:07:31;;;;;;;5.17;4.67;;;3.00;99.90;;;;;;5062163;28;20457;-77
2023/02/05 12:09:59;;;;;;;5.33;4.83;;;3.00;99.90;;;;;;5061401;28;20968;-77
2023/02/05 12:12:36;;;;;;;4.93;4.47;;;3.10;99.90;;;;;;5061446;28;20494;-77
2023/02/05 12:15:14;;;;;;;6.33;5.20;;;3.10;99.90;;;;;;5058318;27;20469;-76
2023/02/05 12:17:51;;;;;;;5.97;5.37;;;3.10;99.90;;;;;;5059407;28;21378;-76
2023/02/05 12:20:25;;;;;;;6.40;5.23;;;3.20;99.90;;;;;;5060174;28;20469;-76
2023/02/05 12:23:25;;;;;;;5.47;4.87;;;3.20;99.90;;;;;;5057117;28;20496;-76
2023/02/05 12:26:05;;;;;;;6.23;5.20;;;3.20;99.90;;;;;;5050700;28;20498;-76
2023/02/05 12:28:42;;;;;;;6.90;6.20;;;3.20;99.90;;;;;;5051526;28;21721;-76
2023/02/05 12:31:24;;;;;;;7.60;5.77;;;3.20;99.90;;;;;;5054509;28;20469;-76
2023/02/05 12:34:11;;;;;;;7.00;6.30;;;3.20;99.90;;;;;;5053664;28;20501;-76
2023/02/05 12:36:51;;;;;;;6.63;5.93;;;3.20;99.90;;;;;;5062388;28;20501;-76
2023/02/05 12:39:36;;;;;;;7.77;5.43;;;3.20;99.90;;;;;;5057568;28;20534;-75
2023/02/05 12:42:17;;;;;;;5.30;4.70;;;3.20;99.90;;;;;;5057097;28;20485;-76
2023/02/05 12:44:58;;;;;;;6.07;5.50;;;3.20;99.90;;;;;;5046721;28;20511;-76
2023/02/05 12:47:49;;;;;;;5.37;4.87;;;3.20;99.90;;;;;;5046170;28;20476;-76
2023/02/05 12:50:39;;;;;;;5.00;4.60;;;3.20;99.90;;;;;;5044562;28;20471;-78
2023/02/05 12:53:19;;;;;;;5.83;5.30;;;3.30;99.90;;;;;;5050386;28;20609;-76
2023/02/05 12:56:01;;;;;;;5.63;5.13;;;3.40;99.90;;;;;;5060070;28;20488;-76
2023/02/05 12:58:37;;;;;;;6.57;4.73;;;3.50;99.90;;;;;;5064902;28;20472;-76
2023/02/05 13:01:12;;;;;;;6.50;5.90;;;3.50;99.90;;;;;;5066736;28;20858;-75
2023/02/05 13:03:45;;;;;;;6.93;5.90;;;3.50;99.90;;;;;;5058711;28;20481;-76
2023/02/05 13:06:23;;;;;;;5.90;5.30;;;3.50;99.90;;;;;;5060216;28;20493;-77
2023/02/05 13:08:54;;;;;;;9.70;6.40;;;3.50;99.90;;;;;;5064049;28;22124;-76
2023/02/05 13:11:28;;;;;;;8.50;7.70;;;3.40;99.90;;;;;;5059807;28;20469;-77
2023/02/05 13:14:01;;;;;;;7.33;6.23;;;3.40;99.90;;;;;;5066387;28;20503;-77
2023/02/05 13:16:39;;;;;;;5.80;5.20;;;3.40;99.90;;;;;;5062495;28;20851;-77
2023/02/05 13:19:22;;;;;;;5.90;5.30;;;3.40;99.90;;;;;;5064782;28;20473;-76
2023/02/05 13:30:35;;;;;;;7.73;5.33;;;3.60;99.90;;;;;;5049361;28;22486;-77
2023/02/05 13:33:09;;;;;;;5.50;5.00;;;3.70;99.90;;;;;;5057328;28;21030;-77
2023/02/05 13:35:49;;;;;;;5.97;5.30;;;3.80;99.90;;;;;;5048136;28;20485;-76
2023/02/05 13:38:39;;;;;;;5.70;4.70;;;3.80;99.90;;;;;;5046172;28;22363;-78
2023/02/05 13:41:41;;;;;;;7.63;5.13;;;3.90;99.90;;;;;;5045704;28;20477;-78
2023/02/05 13:44:28;;;;;;;6.13;5.53;;;3.90;99.90;;;;;;5045180;28;20477;-76
2023/02/05 13:47:38;;;;;;;7.70;5.80;;;3.80;99.90;;;;;;5048726;28;20500;-78
2023/02/05 13:50:33;;;;;;;5.57;5.00;;;3.80;99.90;;;;;;4984459;28;20488;-77
2023/02/05 13:53:20;;;;;;;6.07;5.43;;;3.80;99.90;;;;;;4999539;28;20881;-78
2023/02/05 13:56:20;;;;;;;5.70;4.90;;;3.80;99.90;;;;;;5049800;28;20493;-78